sensor_id;sensor_type;location;lat;lon;timestamp;P1;durP1;ratioP1;P2;durP2;ratioP2
57744;SDS011;58941;50.168;4.410;2023-06-14T00:02:06;2.50;;;2.30;;
57744;SDS011;58941;50.168;4.410;2023-06-14T00:04:34;2.85;;;2.58;;
57744;SDS011;58941;50.168;4.410;2023-06-14T00:07:00;3.03;;;2.70;;
57744;SDS011;58941;50.168;4.410;2023-06-14T00:09:25;2.60;;;2.40;;
57744;SDS011;58941;50.168;4.410;2023-06-14T00:11:51;3.10;;;2.80;;
57744;SDS011;58941;50.168;4.410;2023-06-14T00:14:16;3.03;;;2.72;;
57744;SDS011;58941;50.168;4.410;2023-06-14T00:16:42;2.83;;;2.63;;
57744;SDS011;58941;50.168;4.410;2023-06-14T00:19:10;3.00;;;2.70;;
57744;SDS011;58941;50.168;4.410;2023-06-14T00:21:36;2.72;;;2.47;;
57744;SDS011;58941;50.168;4.410;2023-06-14T00:24:03;2.95;;;2.72;;
57744;SDS011;58941;50.168;4.410;2023-06-14T00:26:29;2.78;;;2.55;;
57744;SDS011;58941;50.168;4.410;2023-06-14T00:28:55;2.88;;;2.67;;
57744;SDS011;58941;50.168;4.410;2023-06-14T00:31:22;2.92;;;2.72;;
57744;SDS011;58941;50.168;4.410;2023-06-14T00:33:47;2.70;;;2.50;;
57744;SDS011;58941;50.168;4.410;2023-06-14T00:36:13;3.05;;;2.72;;
57744;SDS011;58941;50.168;4.410;2023-06-14T00:38:38;3.13;;;2.80;;
57744;SDS011;58941;50.168;4.410;2023-06-14T00:41:04;2.78;;;2.22;;
57744;SDS011;58941;50.168;4.410;2023-06-14T00:43:30;2.63;;;2.42;;
57744;SDS011;58941;50.168;4.410;2023-06-14T00:45:55;3.35;;;2.90;;
57744;SDS011;58941;50.168;4.410;2023-06-14T00:48:21;2.80;;;2.60;;
57744;SDS011;58941;50.168;4.410;2023-06-14T00:50:47;2.85;;;2.40;;
57744;SDS011;58941;50.168;4.410;2023-06-14T00:53:14;3.15;;;2.85;;
57744;SDS011;58941;50.168;4.410;2023-06-14T00:55:40;3.00;;;2.70;;
57744;SDS011;58941;50.168;4.410;2023-06-14T00:58:06;2.72;;;2.53;;
57744;SDS011;58941;50.168;4.410;2023-06-14T01:00:32;2.90;;;2.70;;
57744;SDS011;58941;50.168;4.410;2023-06-14T01:02:58;3.67;;;2.53;;
57744;SDS011;58941;50.168;4.410;2023-06-14T01:05:23;2.72;;;2.53;;
57744;SDS011;58941;50.168;4.410;2023-06-14T01:08:07;2.92;;;2.55;;
57744;SDS011;58941;50.168;4.410;2023-06-14T01:10:47;2.85;;;2.65;;
57744;SDS011;58941;50.168;4.410;2023-06-14T01:15:45;3.67;;;2.72;;
57744;SDS011;58941;50.168;4.410;2023-06-14T01:18:11;3.20;;;2.42;;
57744;SDS011;58941;50.168;4.410;2023-06-14T01:20:43;3.25;;;2.50;;
57744;SDS011;58941;50.168;4.410;2023-06-14T01:23:10;2.42;;;2.22;;
57744;SDS011;58941;50.168;4.410;2023-06-14T01:25:37;3.05;;;2.75;;
57744;SDS011;58941;50.168;4.410;2023-06-14T01:28:04;3.13;;;2.83;;
57744;SDS011;58941;50.168;4.410;2023-06-14T01:30:36;2.83;;;2.63;;
57744;SDS011;58941;50.168;4.410;2023-06-14T01:33:02;2.88;;;2.58;;
57744;SDS011;58941;50.168;4.410;2023-06-14T01:35:29;3.20;;;2.90;;
57744;SDS011;58941;50.168;4.410;2023-06-14T01:37:54;2.60;;;2.40;;
57744;SDS011;58941;50.168;4.410;2023-06-14T01:40:20;3.13;;;2.50;;
57744;SDS011;58941;50.168;4.410;2023-06-14T01:42:47;2.90;;;2.58;;
57744;SDS011;58941;50.168;4.410;2023-06-14T01:45:14;2.60;;;2.40;;
57744;SDS011;58941;50.168;4.410;2023-06-14T01:47:40;2.88;;;2.67;;
57744;SDS011;58941;50.168;4.410;2023-06-14T01:50:07;3.15;;;2.90;;
57744;SDS011;58941;50.168;4.410;2023-06-14T01:52:33;2.88;;;2.67;;
57744;SDS011;58941;50.168;4.410;2023-06-14T01:54:58;3.42;;;2.70;;
57744;SDS011;58941;50.168;4.410;2023-06-14T01:57:29;3.10;;;2.90;;
57744;SDS011;58941;50.168;4.410;2023-06-14T01:59:54;4.15;;;3.10;;
57744;SDS011;58941;50.168;4.410;2023-06-14T02:02:20;3.20;;;3.00;;
57744;SDS011;58941;50.168;4.410;2023-06-14T02:04:45;3.55;;;2.65;;
57744;SDS011;58941;50.168;4.410;2023-06-14T02:07:12;3.28;;;2.97;;
57744;SDS011;58941;50.168;4.410;2023-06-14T02:09:38;2.90;;;2.70;;
57744;SDS011;58941;50.168;4.410;2023-06-14T02:12:03;2.95;;;2.63;;
57744;SDS011;58941;50.168;4.410;2023-06-14T02:14:29;3.38;;;3.08;;
57744;SDS011;58941;50.168;4.410;2023-06-14T02:16:55;3.35;;;2.90;;
57744;SDS011;58941;50.168;4.410;2023-06-14T02:19:20;3.10;;;2.80;;
57744;SDS011;58941;50.168;4.410;2023-06-14T02:21:47;3.17;;;2.90;;
57744;SDS011;58941;50.168;4.410;2023-06-14T02:24:13;3.40;;;3.10;;
57744;SDS011;58941;50.168;4.410;2023-06-14T02:26:38;3.53;;;2.95;;
57744;SDS011;58941;50.168;4.410;2023-06-14T02:29:04;3.10;;;2.80;;
57744;SDS011;58941;50.168;4.410;2023-06-14T02:31:33;2.90;;;2.60;;
57744;SDS011;58941;50.168;4.410;2023-06-14T02:33:59;3.40;;;3.10;;
57744;SDS011;58941;50.168;4.410;2023-06-14T02:36:24;2.97;;;2.75;;
57744;SDS011;58941;50.168;4.410;2023-06-14T02:38:50;3.10;;;2.88;;
57744;SDS011;58941;50.168;4.410;2023-06-14T02:41:15;3.50;;;3.20;;
57744;SDS011;58941;50.168;4.410;2023-06-14T02:43:41;2.67;;;2.47;;
57744;SDS011;58941;50.168;4.410;2023-06-14T02:46:06;4.30;;;3.45;;
57744;SDS011;58941;50.168;4.410;2023-06-14T02:48:32;3.10;;;2.80;;
57744;SDS011;58941;50.168;4.410;2023-06-14T02:50:57;3.67;;;3.38;;
57744;SDS011;58941;50.168;4.410;2023-06-14T02:53:23;3.75;;;3.33;;
57744;SDS011;58941;50.168;4.410;2023-06-14T02:55:49;2.90;;;2.70;;
57744;SDS011;58941;50.168;4.410;2023-06-14T02:58:14;3.30;;;3.00;;
57744;SDS011;58941;50.168;4.410;2023-06-14T03:00:41;4.97;;;3.33;;
57744;SDS011;58941;50.168;4.410;2023-06-14T03:03:07;3.05;;;2.75;;
57744;SDS011;58941;50.168;4.410;2023-06-14T03:05:43;3.10;;;2.80;;
57744;SDS011;58941;50.168;4.410;2023-06-14T03:08:18;3.00;;;2.70;;
57744;SDS011;58941;50.168;4.410;2023-06-14T03:10:45;3.30;;;2.80;;
57744;SDS011;58941;50.168;4.410;2023-06-14T03:13:11;3.17;;;2.72;;
57744;SDS011;58941;50.168;4.410;2023-06-14T03:15:37;3.72;;;2.88;;
57744;SDS011;58941;50.168;4.410;2023-06-14T03:18:03;2.92;;;2.72;;
57744;SDS011;58941;50.168;4.410;2023-06-14T03:20:29;3.00;;;2.80;;
57744;SDS011;58941;50.168;4.410;2023-06-14T03:22:59;2.90;;;2.70;;
57744;SDS011;58941;50.168;4.410;2023-06-14T03:25:26;3.08;;;2.88;;
57744;SDS011;58941;50.168;4.410;2023-06-14T03:27:55;3.92;;;3.50;;
57744;SDS011;58941;50.168;4.410;2023-06-14T03:30:21;3.47;;;3.17;;
57744;SDS011;58941;50.168;4.410;2023-06-14T03:32:46;3.33;;;3.03;;
57744;SDS011;58941;50.168;4.410;2023-06-14T03:35:11;3.38;;;3.10;;
57744;SDS011;58941;50.168;4.410;2023-06-14T03:37:45;3.67;;;3.38;;
57744;SDS011;58941;50.168;4.410;2023-06-14T03:40:11;3.40;;;3.10;;
57744;SDS011;58941;50.168;4.410;2023-06-14T03:42:37;3.30;;;3.00;;
57744;SDS011;58941;50.168;4.410;2023-06-14T03:45:03;3.10;;;2.80;;
57744;SDS011;58941;50.168;4.410;2023-06-14T03:47:29;3.00;;;2.80;;
57744;SDS011;58941;50.168;4.410;2023-06-14T03:49:54;3.60;;;3.30;;
57744;SDS011;58941;50.168;4.410;2023-06-14T03:52:20;2.85;;;2.65;;
57744;SDS011;58941;50.168;4.410;2023-06-14T03:54:47;2.90;;;2.70;;
57744;SDS011;58941;50.168;4.410;2023-06-14T03:57:12;3.17;;;2.88;;
57744;SDS011;58941;50.168;4.410;2023-06-14T03:59:38;3.13;;;2.90;;
57744;SDS011;58941;50.168;4.410;2023-06-14T04:02:03;4.20;;;2.97;;
57744;SDS011;58941;50.168;4.410;2023-06-14T04:04:29;3.20;;;2.90;;
57744;SDS011;58941;50.168;4.410;2023-06-14T04:06:55;3.45;;;3.15;;
57744;SDS011;58941;50.168;4.410;2023-06-14T04:09:22;3.40;;;3.10;;
57744;SDS011;58941;50.168;4.410;2023-06-14T04:11:48;5.05;;;3.30;;
57744;SDS011;58941;50.168;4.410;2023-06-14T04:14:13;3.17;;;2.88;;
57744;SDS011;58941;50.168;4.410;2023-06-14T04:16:38;3.25;;;2.95;;
57744;SDS011;58941;50.168;4.410;2023-06-14T04:19:04;3.72;;;3.40;;
57744;SDS011;58941;50.168;4.410;2023-06-14T04:21:29;3.15;;;2.85;;
57744;SDS011;58941;50.168;4.410;2023-06-14T04:23:55;3.30;;;3.00;;
57744;SDS011;58941;50.168;4.410;2023-06-14T04:26:21;3.40;;;3.00;;
57744;SDS011;58941;50.168;4.410;2023-06-14T04:28:49;3.25;;;2.95;;
57744;SDS011;58941;50.168;4.410;2023-06-14T04:31:15;4.72;;;3.10;;
57744;SDS011;58941;50.168;4.410;2023-06-14T04:33:41;4.10;;;3.15;;
57744;SDS011;58941;50.168;4.410;2023-06-14T04:36:12;3.15;;;2.88;;
57744;SDS011;58941;50.168;4.410;2023-06-14T04:38:38;3.15;;;2.92;;
57744;SDS011;58941;50.168;4.410;2023-06-14T04:41:04;3.28;;;2.97;;
57744;SDS011;58941;50.168;4.410;2023-06-14T04:43:30;3.63;;;3.33;;
57744;SDS011;58941;50.168;4.410;2023-06-14T04:45:56;3.13;;;2.83;;
57744;SDS011;58941;50.168;4.410;2023-06-14T04:48:22;3.58;;;3.15;;
57744;SDS011;58941;50.168;4.410;2023-06-14T04:50:48;5.25;;;3.20;;
57744;SDS011;58941;50.168;4.410;2023-06-14T04:53:13;3.35;;;3.05;;
57744;SDS011;58941;50.168;4.410;2023-06-14T04:55:39;3.40;;;3.10;;
57744;SDS011;58941;50.168;4.410;2023-06-14T04:58:05;3.47;;;3.17;;
57744;SDS011;58941;50.168;4.410;2023-06-14T05:00:30;3.78;;;3.38;;
57744;SDS011;58941;50.168;4.410;2023-06-14T05:02:55;3.97;;;3.63;;
57744;SDS011;58941;50.168;4.410;2023-06-14T05:05:22;3.33;;;3.03;;
57744;SDS011;58941;50.168;4.410;2023-06-14T05:07:48;3.22;;;2.92;;
57744;SDS011;58941;50.168;4.410;2023-06-14T05:10:13;3.58;;;3.28;;
57744;SDS011;58941;50.168;4.410;2023-06-14T05:12:38;4.57;;;3.58;;
57744;SDS011;58941;50.168;4.410;2023-06-14T05:15:04;3.40;;;3.10;;
57744;SDS011;58941;50.168;4.410;2023-06-14T05:17:30;3.80;;;3.00;;
57744;SDS011;58941;50.168;4.410;2023-06-14T05:19:55;3.40;;;2.97;;
57744;SDS011;58941;50.168;4.410;2023-06-14T05:22:21;3.17;;;2.97;;
57744;SDS011;58941;50.168;4.410;2023-06-14T05:24:47;3.65;;;2.83;;
57744;SDS011;58941;50.168;4.410;2023-06-14T05:27:13;3.40;;;3.10;;
57744;SDS011;58941;50.168;4.410;2023-06-14T05:29:39;3.30;;;3.00;;
57744;SDS011;58941;50.168;4.410;2023-06-14T05:32:05;3.50;;;3.10;;
57744;SDS011;58941;50.168;4.410;2023-06-14T05:34:31;3.15;;;2.85;;
57744;SDS011;58941;50.168;4.410;2023-06-14T05:36:56;3.95;;;3.17;;
57744;SDS011;58941;50.168;4.410;2023-06-14T05:39:22;3.60;;;3.30;;
57744;SDS011;58941;50.168;4.410;2023-06-14T05:41:49;3.05;;;2.85;;
57744;SDS011;58941;50.168;4.410;2023-06-14T05:44:14;2.90;;;2.70;;
57744;SDS011;58941;50.168;4.410;2023-06-14T05:46:40;3.40;;;3.10;;
57744;SDS011;58941;50.168;4.410;2023-06-14T05:49:06;3.40;;;3.10;;
57744;SDS011;58941;50.168;4.410;2023-06-14T05:51:31;3.78;;;3.42;;
57744;SDS011;58941;50.168;4.410;2023-06-14T05:53:57;3.67;;;3.30;;
57744;SDS011;58941;50.168;4.410;2023-06-14T05:56:23;4.40;;;3.30;;
57744;SDS011;58941;50.168;4.410;2023-06-14T05:58:49;3.50;;;3.20;;
57744;SDS011;58941;50.168;4.410;2023-06-14T06:01:14;4.15;;;3.60;;
57744;SDS011;58941;50.168;4.410;2023-06-14T06:03:40;3.40;;;3.10;;
57744;SDS011;58941;50.168;4.410;2023-06-14T06:06:06;3.50;;;3.20;;
57744;SDS011;58941;50.168;4.410;2023-06-14T06:08:33;3.35;;;3.05;;
57744;SDS011;58941;50.168;4.410;2023-06-14T06:10:58;3.60;;;3.30;;
57744;SDS011;58941;50.168;4.410;2023-06-14T06:13:25;3.65;;;3.35;;
57744;SDS011;58941;50.168;4.410;2023-06-14T06:15:50;3.22;;;3.00;;
57744;SDS011;58941;50.168;4.410;2023-06-14T06:18:16;3.83;;;3.47;;
57744;SDS011;58941;50.168;4.410;2023-06-14T06:20:42;3.25;;;2.92;;
57744;SDS011;58941;50.168;4.410;2023-06-14T06:23:09;3.50;;;3.20;;
57744;SDS011;58941;50.168;4.410;2023-06-14T06:25:35;4.18;;;3.47;;
57744;SDS011;58941;50.168;4.410;2023-06-14T06:28:03;4.20;;;3.17;;
57744;SDS011;58941;50.168;4.410;2023-06-14T06:30:28;3.63;;;3.33;;
57744;SDS011;58941;50.168;4.410;2023-06-14T06:32:54;3.67;;;3.38;;
57744;SDS011;58941;50.168;4.410;2023-06-14T06:35:21;3.85;;;3.45;;
57744;SDS011;58941;50.168;4.410;2023-06-14T06:37:46;4.38;;;3.50;;
57744;SDS011;58941;50.168;4.410;2023-06-14T06:40:12;3.50;;;2.88;;
57744;SDS011;58941;50.168;4.410;2023-06-14T06:42:37;3.97;;;2.80;;
57744;SDS011;58941;50.168;4.410;2023-06-14T06:45:03;3.42;;;2.90;;
57744;SDS011;58941;50.168;4.410;2023-06-14T06:47:29;3.65;;;3.35;;
57744;SDS011;58941;50.168;4.410;2023-06-14T06:49:55;3.78;;;3.13;;
57744;SDS011;58941;50.168;4.410;2023-06-14T06:52:20;4.30;;;3.22;;
57744;SDS011;58941;50.168;4.410;2023-06-14T06:54:46;3.67;;;3.38;;
57744;SDS011;58941;50.168;4.410;2023-06-14T06:57:11;3.47;;;2.90;;
57744;SDS011;58941;50.168;4.410;2023-06-14T06:59:37;4.65;;;3.22;;
57744;SDS011;58941;50.168;4.410;2023-06-14T07:02:03;3.50;;;3.20;;
57744;SDS011;58941;50.168;4.410;2023-06-14T07:04:29;4.38;;;3.33;;
57744;SDS011;58941;50.168;4.410;2023-06-14T07:06:54;3.75;;;3.33;;
57744;SDS011;58941;50.168;4.410;2023-06-14T07:09:20;3.70;;;3.33;;
57744;SDS011;58941;50.168;4.410;2023-06-14T07:11:46;3.10;;;2.88;;
57744;SDS011;58941;50.168;4.410;2023-06-14T07:14:12;3.22;;;2.90;;
57744;SDS011;58941;50.168;4.410;2023-06-14T07:16:38;3.72;;;3.00;;
57744;SDS011;58941;50.168;4.410;2023-06-14T07:19:03;3.30;;;3.00;;
57744;SDS011;58941;50.168;4.410;2023-06-14T07:21:29;3.40;;;3.10;;
57744;SDS011;58941;50.168;4.410;2023-06-14T07:23:55;3.30;;;3.00;;
57744;SDS011;58941;50.168;4.410;2023-06-14T07:26:21;3.75;;;3.45;;
57744;SDS011;58941;50.168;4.410;2023-06-14T07:28:47;3.20;;;2.90;;
57744;SDS011;58941;50.168;4.410;2023-06-14T07:31:13;3.88;;;3.58;;
57744;SDS011;58941;50.168;4.410;2023-06-14T07:33:38;3.40;;;3.10;;
57744;SDS011;58941;50.168;4.410;2023-06-14T07:36:04;4.90;;;3.30;;
57744;SDS011;58941;50.168;4.410;2023-06-14T07:38:29;3.78;;;2.78;;
57744;SDS011;58941;50.168;4.410;2023-06-14T07:40:55;3.72;;;3.25;;
57744;SDS011;58941;50.168;4.410;2023-06-14T07:43:20;3.40;;;3.10;;
57744;SDS011;58941;50.168;4.410;2023-06-14T07:45:46;4.47;;;3.60;;
57744;SDS011;58941;50.168;4.410;2023-06-14T07:48:11;4.03;;;2.97;;
57744;SDS011;58941;50.168;4.410;2023-06-14T07:50:37;3.42;;;3.00;;
57744;SDS011;58941;50.168;4.410;2023-06-14T07:53:02;3.20;;;2.90;;
57744;SDS011;58941;50.168;4.410;2023-06-14T07:55:28;3.15;;;2.85;;
57744;SDS011;58941;50.168;4.410;2023-06-14T07:57:53;3.50;;;2.80;;
57744;SDS011;58941;50.168;4.410;2023-06-14T08:00:19;3.08;;;2.83;;
57744;SDS011;58941;50.168;4.410;2023-06-14T08:02:46;3.38;;;3.05;;
57744;SDS011;58941;50.168;4.410;2023-06-14T08:05:11;3.28;;;2.97;;
57744;SDS011;58941;50.168;4.410;2023-06-14T08:07:38;3.42;;;3.03;;
57744;SDS011;58941;50.168;4.410;2023-06-14T08:10:04;2.88;;;2.67;;
57744;SDS011;58941;50.168;4.410;2023-06-14T08:12:29;3.20;;;2.90;;
57744;SDS011;58941;50.168;4.410;2023-06-14T08:14:55;3.30;;;3.00;;
57744;SDS011;58941;50.168;4.410;2023-06-14T08:17:21;3.17;;;2.88;;
57744;SDS011;58941;50.168;4.410;2023-06-14T08:19:46;3.40;;;3.10;;
57744;SDS011;58941;50.168;4.410;2023-06-14T08:22:12;3.60;;;3.30;;
57744;SDS011;58941;50.168;4.410;2023-06-14T08:24:38;3.05;;;2.75;;
57744;SDS011;58941;50.168;4.410;2023-06-14T08:27:05;3.22;;;2.92;;
57744;SDS011;58941;50.168;4.410;2023-06-14T08:29:31;3.15;;;2.85;;
57744;SDS011;58941;50.168;4.410;2023-06-14T08:31:56;3.42;;;2.80;;
57744;SDS011;58941;50.168;4.410;2023-06-14T08:34:22;3.03;;;2.83;;
57744;SDS011;58941;50.168;4.410;2023-06-14T08:36:52;3.03;;;2.60;;
57744;SDS011;58941;50.168;4.410;2023-06-14T08:39:17;2.67;;;2.47;;
57744;SDS011;58941;50.168;4.410;2023-06-14T08:41:45;2.92;;;2.72;;
57744;SDS011;58941;50.168;4.410;2023-06-14T08:44:11;3.40;;;3.10;;
57744;SDS011;58941;50.168;4.410;2023-06-14T08:46:37;4.28;;;3.25;;
57744;SDS011;58941;50.168;4.410;2023-06-14T08:49:03;3.47;;;3.17;;
57744;SDS011;58941;50.168;4.410;2023-06-14T08:51:30;3.13;;;2.90;;
57744;SDS011;58941;50.168;4.410;2023-06-14T08:53:59;3.08;;;2.78;;
57744;SDS011;58941;50.168;4.410;2023-06-14T08:56:27;3.30;;;2.90;;
57744;SDS011;58941;50.168;4.410;2023-06-14T08:58:54;3.60;;;3.30;;
57744;SDS011;58941;50.168;4.410;2023-06-14T09:01:20;2.95;;;2.65;;
57744;SDS011;58941;50.168;4.410;2023-06-14T09:03:47;3.58;;;3.28;;
57744;SDS011;58941;50.168;4.410;2023-06-14T09:06:13;3.85;;;3.42;;
57744;SDS011;58941;50.168;4.410;2023-06-14T09:08:42;3.15;;;2.85;;
57744;SDS011;58941;50.168;4.410;2023-06-14T09:11:10;3.30;;;2.97;;
57744;SDS011;58941;50.168;4.410;2023-06-14T09:13:38;3.92;;;3.45;;
57744;SDS011;58941;50.168;4.410;2023-06-14T09:16:04;3.88;;;3.20;;
57744;SDS011;58941;50.168;4.410;2023-06-14T09:18:36;3.40;;;3.10;;
57744;SDS011;58941;50.168;4.410;2023-06-14T09:21:02;3.72;;;3.33;;
57744;SDS011;58941;50.168;4.410;2023-06-14T09:23:27;3.05;;;2.83;;
57744;SDS011;58941;50.168;4.410;2023-06-14T09:25:53;3.20;;;3.00;;
57744;SDS011;58941;50.168;4.410;2023-06-14T09:28:19;3.80;;;3.40;;
57744;SDS011;58941;50.168;4.410;2023-06-14T09:30:48;3.20;;;2.85;;
57744;SDS011;58941;50.168;4.410;2023-06-14T09:33:16;3.38;;;3.08;;
57744;SDS011;58941;50.168;4.410;2023-06-14T09:35:45;3.67;;;3.38;;
57744;SDS011;58941;50.168;4.410;2023-06-14T09:38:10;3.83;;;3.05;;
57744;SDS011;58941;50.168;4.410;2023-06-14T09:40:36;3.35;;;3.00;;
57744;SDS011;58941;50.168;4.410;2023-06-14T09:43:05;3.50;;;3.20;;
57744;SDS011;58941;50.168;4.410;2023-06-14T09:45:32;3.80;;;3.15;;
57744;SDS011;58941;50.168;4.410;2023-06-14T09:47:58;3.45;;;3.15;;
57744;SDS011;58941;50.168;4.410;2023-06-14T09:50:23;3.65;;;3.35;;
57744;SDS011;58941;50.168;4.410;2023-06-14T09:52:50;3.40;;;3.10;;
57744;SDS011;58941;50.168;4.410;2023-06-14T09:55:18;4.72;;;3.20;;
57744;SDS011;58941;50.168;4.410;2023-06-14T09:57:44;4.18;;;3.38;;
57744;SDS011;58941;50.168;4.410;2023-06-14T10:00:11;3.38;;;3.08;;
57744;SDS011;58941;50.168;4.410;2023-06-14T10:02:38;3.13;;;2.92;;
57744;SDS011;58941;50.168;4.410;2023-06-14T10:05:05;3.22;;;3.03;;
57744;SDS011;58941;50.168;4.410;2023-06-14T10:07:40;3.63;;;3.30;;
57744;SDS011;58941;50.168;4.410;2023-06-14T10:10:08;3.55;;;3.05;;
57744;SDS011;58941;50.168;4.410;2023-06-14T10:12:34;3.30;;;3.00;;
57744;SDS011;58941;50.168;4.410;2023-06-14T10:15:00;3.13;;;2.83;;
57744;SDS011;58941;50.168;4.410;2023-06-14T10:17:29;3.17;;;2.88;;
57744;SDS011;58941;50.168;4.410;2023-06-14T10:22:38;2.97;;;2.65;;
57744;SDS011;58941;50.168;4.410;2023-06-14T10:25:06;3.90;;;2.90;;
57744;SDS011;58941;50.168;4.410;2023-06-14T10:27:38;3.72;;;3.00;;
57744;SDS011;58941;50.168;4.410;2023-06-14T10:30:04;2.75;;;2.55;;
57744;SDS011;58941;50.168;4.410;2023-06-14T10:32:29;3.13;;;2.70;;
57744;SDS011;58941;50.168;4.410;2023-06-14T10:34:59;3.65;;;2.88;;
57744;SDS011;58941;50.168;4.410;2023-06-14T10:37:25;2.78;;;2.50;;
57744;SDS011;58941;50.168;4.410;2023-06-14T10:39:51;3.22;;;2.83;;
57744;SDS011;58941;50.168;4.410;2023-06-14T10:42:18;3.13;;;2.55;;
57744;SDS011;58941;50.168;4.410;2023-06-14T10:44:51;3.72;;;2.60;;
57744;SDS011;58941;50.168;4.410;2023-06-14T10:47:35;2.88;;;2.65;;
57744;SDS011;58941;50.168;4.410;2023-06-14T10:50:10;2.83;;;2.38;;
57744;SDS011;58941;50.168;4.410;2023-06-14T10:52:41;3.15;;;2.53;;
57744;SDS011;58941;50.168;4.410;2023-06-14T10:57:45;3.63;;;2.60;;
57744;SDS011;58941;50.168;4.410;2023-06-14T11:00:15;2.50;;;2.30;;
57744;SDS011;58941;50.168;4.410;2023-06-14T11:03:03;2.50;;;2.30;;
57744;SDS011;58941;50.168;4.410;2023-06-14T11:05:35;3.38;;;3.08;;
57744;SDS011;58941;50.168;4.410;2023-06-14T11:10:59;3.30;;;2.45;;
57744;SDS011;58941;50.168;4.410;2023-06-14T11:13:27;2.65;;;2.33;;
57744;SDS011;58941;50.168;4.410;2023-06-14T11:15:54;3.05;;;2.58;;
57744;SDS011;58941;50.168;4.410;2023-06-14T11:18:22;3.15;;;2.60;;
57744;SDS011;58941;50.168;4.410;2023-06-14T11:20:52;2.70;;;2.30;;
57744;SDS011;58941;50.168;4.410;2023-06-14T11:23:18;2.78;;;2.42;;
57744;SDS011;58941;50.168;4.410;2023-06-14T11:25:49;2.58;;;2.38;;
57744;SDS011;58941;50.168;4.410;2023-06-14T11:28:15;2.53;;;2.33;;
57744;SDS011;58941;50.168;4.410;2023-06-14T11:30:40;2.55;;;2.28;;
57744;SDS011;58941;50.168;4.410;2023-06-14T11:33:09;2.25;;;2.05;;
57744;SDS011;58941;50.168;4.410;2023-06-14T11:35:35;2.50;;;2.15;;
57744;SDS011;58941;50.168;4.410;2023-06-14T11:38:01;2.58;;;2.38;;
57744;SDS011;58941;50.168;4.410;2023-06-14T11:40:27;2.50;;;2.30;;
57744;SDS011;58941;50.168;4.410;2023-06-14T11:43:02;2.47;;;2.28;;
57744;SDS011;58941;50.168;4.410;2023-06-14T11:45:28;2.85;;;2.33;;
57744;SDS011;58941;50.168;4.410;2023-06-14T11:47:55;2.47;;;2.25;;
57744;SDS011;58941;50.168;4.410;2023-06-14T11:50:21;2.35;;;2.15;;
57744;SDS011;58941;50.168;4.410;2023-06-14T11:52:56;2.33;;;2.13;;
57744;SDS011;58941;50.168;4.410;2023-06-14T11:55:22;2.50;;;2.30;;
57744;SDS011;58941;50.168;4.410;2023-06-14T11:57:48;2.20;;;2.00;;
57744;SDS011;58941;50.168;4.410;2023-06-14T12:00:14;2.40;;;2.20;;
57744;SDS011;58941;50.168;4.410;2023-06-14T12:02:40;2.40;;;2.20;;
57744;SDS011;58941;50.168;4.410;2023-06-14T12:05:07;2.45;;;2.25;;
57744;SDS011;58941;50.168;4.410;2023-06-14T12:07:36;2.22;;;2.03;;
57744;SDS011;58941;50.168;4.410;2023-06-14T12:14:58;2.25;;;2.05;;
57744;SDS011;58941;50.168;4.410;2023-06-14T12:17:25;3.03;;;2.40;;
57744;SDS011;58941;50.168;4.410;2023-06-14T12:19:50;2.40;;;2.20;;
57744;SDS011;58941;50.168;4.410;2023-06-14T12:22:16;2.47;;;1.98;;
57744;SDS011;58941;50.168;4.410;2023-06-14T12:24:42;2.58;;;2.28;;
57744;SDS011;58941;50.168;4.410;2023-06-14T12:27:08;2.63;;;2.00;;
57744;SDS011;58941;50.168;4.410;2023-06-14T12:29:34;1.95;;;1.80;;
57744;SDS011;58941;50.168;4.410;2023-06-14T12:32:01;2.22;;;1.80;;
57744;SDS011;58941;50.168;4.410;2023-06-14T12:34:26;2.33;;;2.05;;
57744;SDS011;58941;50.168;4.410;2023-06-14T12:36:53;2.17;;;1.95;;
57744;SDS011;58941;50.168;4.410;2023-06-14T12:39:19;2.08;;;1.98;;
57744;SDS011;58941;50.168;4.410;2023-06-14T12:41:44;2.67;;;2.20;;
57744;SDS011;58941;50.168;4.410;2023-06-14T12:44:10;2.50;;;2.05;;
57744;SDS011;58941;50.168;4.410;2023-06-14T12:46:36;2.03;;;1.92;;
57744;SDS011;58941;50.168;4.410;2023-06-14T12:49:02;2.22;;;2.08;;
57744;SDS011;58941;50.168;4.410;2023-06-14T12:51:27;2.28;;;2.08;;
57744;SDS011;58941;50.168;4.410;2023-06-14T12:53:53;2.20;;;2.00;;
57744;SDS011;58941;50.168;4.410;2023-06-14T12:56:19;2.70;;;2.17;;
57744;SDS011;58941;50.168;4.410;2023-06-14T12:58:44;3.17;;;2.33;;
57744;SDS011;58941;50.168;4.410;2023-06-14T13:01:10;2.67;;;2.25;;
57744;SDS011;58941;50.168;4.410;2023-06-14T13:03:35;2.17;;;1.98;;
57744;SDS011;58941;50.168;4.410;2023-06-14T13:06:01;2.63;;;2.30;;
57744;SDS011;58941;50.168;4.410;2023-06-14T13:08:28;3.05;;;2.05;;
57744;SDS011;58941;50.168;4.410;2023-06-14T13:10:53;2.13;;;1.90;;
57744;SDS011;58941;50.168;4.410;2023-06-14T13:13:20;2.10;;;1.90;;
57744;SDS011;58941;50.168;4.410;2023-06-14T13:15:46;2.15;;;1.90;;
57744;SDS011;58941;50.168;4.410;2023-06-14T13:18:12;2.22;;;2.03;;
57744;SDS011;58941;50.168;4.410;2023-06-14T13:20:41;2.20;;;2.00;;
57744;SDS011;58941;50.168;4.410;2023-06-14T13:23:06;1.85;;;1.75;;
57744;SDS011;58941;50.168;4.410;2023-06-14T13:25:33;2.00;;;1.83;;
57744;SDS011;58941;50.168;4.410;2023-06-14T13:27:58;2.20;;;1.80;;
57744;SDS011;58941;50.168;4.410;2023-06-14T13:30:24;2.15;;;1.95;;
57744;SDS011;58941;50.168;4.410;2023-06-14T13:32:49;1.95;;;1.83;;
57744;SDS011;58941;50.168;4.410;2023-06-14T13:35:17;1.70;;;1.60;;
57744;SDS011;58941;50.168;4.410;2023-06-14T13:37:43;1.90;;;1.80;;
57744;SDS011;58941;50.168;4.410;2023-06-14T13:40:09;1.92;;;1.73;;
57744;SDS011;58941;50.168;4.410;2023-06-14T13:42:34;1.60;;;1.50;;
57744;SDS011;58941;50.168;4.410;2023-06-14T13:45:01;2.00;;;1.50;;
57744;SDS011;58941;50.168;4.410;2023-06-14T13:47:26;1.88;;;1.70;;
57744;SDS011;58941;50.168;4.410;2023-06-14T13:49:52;1.70;;;1.60;;
57744;SDS011;58941;50.168;4.410;2023-06-14T13:52:17;2.40;;;1.58;;
57744;SDS011;58941;50.168;4.410;2023-06-14T13:54:43;1.65;;;1.55;;
57744;SDS011;58941;50.168;4.410;2023-06-14T13:57:09;1.67;;;1.58;;
57744;SDS011;58941;50.168;4.410;2023-06-14T13:59:37;1.50;;;1.30;;
57744;SDS011;58941;50.168;4.410;2023-06-14T14:02:03;1.85;;;1.50;;
57744;SDS011;58941;50.168;4.410;2023-06-14T14:04:28;1.20;;;1.10;;
57744;SDS011;58941;50.168;4.410;2023-06-14T14:06:54;2.25;;;1.30;;
57744;SDS011;58941;50.168;4.410;2023-06-14T14:09:20;1.50;;;1.40;;
57744;SDS011;58941;50.168;4.410;2023-06-14T14:11:45;1.20;;;1.10;;
57744;SDS011;58941;50.168;4.410;2023-06-14T14:14:11;2.22;;;1.15;;
57744;SDS011;58941;50.168;4.410;2023-06-14T14:16:36;1.30;;;1.20;;
57744;SDS011;58941;50.168;4.410;2023-06-14T14:19:02;1.20;;;1.02;;
57744;SDS011;58941;50.168;4.410;2023-06-14T14:21:28;1.38;;;1.27;;
57744;SDS011;58941;50.168;4.410;2023-06-14T14:23:53;1.27;;;1.00;;
57744;SDS011;58941;50.168;4.410;2023-06-14T14:26:19;1.25;;;1.08;;
57744;SDS011;58941;50.168;4.410;2023-06-14T14:28:44;1.15;;;1.05;;
57744;SDS011;58941;50.168;4.410;2023-06-14T14:31:10;1.48;;;1.08;;
57744;SDS011;58941;50.168;4.410;2023-06-14T14:33:35;1.25;;;1.15;;
57744;SDS011;58941;50.168;4.410;2023-06-14T14:36:01;1.45;;;1.25;;
57744;SDS011;58941;50.168;4.410;2023-06-14T14:38:29;1.33;;;1.10;;
57744;SDS011;58941;50.168;4.410;2023-06-14T14:40:55;1.90;;;1.10;;
57744;SDS011;58941;50.168;4.410;2023-06-14T14:43:20;1.40;;;1.27;;
57744;SDS011;58941;50.168;4.410;2023-06-14T14:45:46;1.63;;;1.10;;
57744;SDS011;58941;50.168;4.410;2023-06-14T14:48:11;1.17;;;0.93;;
57744;SDS011;58941;50.168;4.410;2023-06-14T14:50:36;1.23;;;1.13;;
57744;SDS011;58941;50.168;4.410;2023-06-14T14:53:02;1.10;;;1.00;;
57744;SDS011;58941;50.168;4.410;2023-06-14T14:55:28;1.73;;;0.93;;
57744;SDS011;58941;50.168;4.410;2023-06-14T14:57:53;1.20;;;1.10;;
57744;SDS011;58941;50.168;4.410;2023-06-14T15:00:19;1.50;;;1.00;;